createdAt,value
2017-12-08T00:01:07.042Z,5.22
2017-12-08T00:03:34.633Z,4.25
2017-12-08T00:06:02.972Z,5.18
2017-12-08T00:08:30.586Z,4.93
2017-12-08T00:10:58.145Z,4.95
2017-12-08T00:13:25.722Z,4.93
2017-12-08T00:15:53.302Z,5.53
2017-12-08T00:18:20.858Z,4.80
2017-12-08T00:20:48.454Z,4.10
2017-12-08T00:23:16.788Z,4.75
2017-12-08T00:25:44.343Z,4.30
2017-12-08T00:28:11.921Z,4.12
2017-12-08T00:30:39.505Z,5.25
2017-12-08T00:33:07.098Z,4.25
2017-12-08T00:35:34.653Z,5.25
2017-12-08T00:38:02.216Z,4.65
2017-12-08T00:40:29.824Z,5.20
2017-12-08T00:42:57.372Z,5.10
2017-12-08T00:45:24.934Z,4.90
2017-12-08T00:47:52.544Z,3.72
2017-12-08T00:50:20.887Z,3.67
2017-12-08T00:52:48.446Z,3.78
2017-12-08T00:55:16.037Z,4.30
2017-12-08T00:57:44.397Z,4.10
2017-12-08T01:00:11.982Z,3.80
2017-12-08T01:02:40.302Z,4.70
2017-12-08T01:05:07.932Z,3.90
2017-12-08T01:07:35.518Z,5.10
2017-12-08T01:10:03.075Z,5.15
2017-12-08T01:12:30.635Z,4.12
2017-12-08T01:14:58.211Z,3.87
2017-12-08T01:17:25.756Z,4.30
2017-12-08T01:19:53.295Z,4.53
2017-12-08T01:22:20.895Z,3.95
2017-12-08T01:24:48.476Z,4.22
2017-12-08T01:27:16.036Z,3.92
2017-12-08T01:29:43.614Z,4.00
2017-12-08T01:32:11.939Z,3.50
2017-12-08T01:34:39.615Z,3.50
2017-12-08T01:37:07.206Z,3.35
2017-12-08T01:39:35.530Z,2.55
2017-12-08T01:42:03.122Z,3.10
2017-12-08T01:44:30.720Z,3.22
2017-12-08T01:46:59.028Z,3.30
2017-12-08T01:49:26.602Z,3.72
2017-12-08T01:51:54.177Z,3.78
2017-12-08T01:54:21.745Z,5.18
2017-12-08T01:56:49.328Z,4.03
2017-12-08T01:59:17.724Z,4.15
2017-12-08T02:01:45.283Z,4.07
2017-12-08T02:04:12.847Z,4.32
2017-12-08T02:06:40.455Z,4.80
2017-12-08T02:09:08.043Z,6.03
2017-12-08T02:11:36.414Z,6.30
2017-12-08T02:14:04.752Z,4.75
2017-12-08T02:16:32.347Z,4.25
2017-12-08T02:18:59.950Z,4.70
2017-12-08T02:21:27.896Z,3.97
2017-12-08T02:23:56.272Z,3.45
2017-12-08T02:26:24.650Z,3.37
2017-12-08T02:28:53.032Z,4.20
2017-12-08T02:31:21.433Z,3.40
2017-12-08T02:33:49.073Z,3.67
2017-12-08T02:36:17.407Z,3.55
2017-12-08T02:38:45.769Z,3.65
2017-12-08T02:41:13.313Z,2.70
2017-12-08T02:43:40.878Z,3.15
2017-12-08T02:46:08.446Z,2.67
2017-12-08T02:48:36.046Z,2.62
2017-12-08T02:51:03.598Z,2.87
2017-12-08T02:53:31.201Z,3.37
2017-12-08T02:55:58.765Z,3.05
2017-12-08T02:58:26.309Z,2.70
2017-12-08T03:00:54.662Z,3.30
2017-12-08T03:03:22.245Z,2.90
2017-12-08T03:05:49.835Z,3.40
2017-12-08T03:08:17.412Z,3.78
2017-12-08T03:10:45.038Z,3.50
2017-12-08T03:13:12.590Z,2.75
2017-12-08T03:15:40.959Z,2.67
2017-12-08T03:18:09.264Z,2.75
2017-12-08T03:20:36.868Z,2.80
2017-12-08T03:23:04.446Z,2.40
2017-12-08T03:25:32.779Z,2.70
2017-12-08T03:28:00.379Z,3.20
2017-12-08T03:30:27.933Z,2.72
2017-12-08T03:32:55.534Z,2.75
2017-12-08T03:35:23.110Z,3.22
2017-12-08T03:37:50.693Z,2.62
2017-12-08T03:40:18.284Z,2.67
2017-12-08T03:42:46.680Z,3.15
2017-12-08T03:45:15.028Z,3.10
2017-12-08T03:47:42.586Z,2.45
2017-12-08T03:50:10.189Z,3.28
2017-12-08T03:52:37.765Z,3.58
2017-12-08T03:55:05.333Z,3.20
2017-12-08T03:57:32.933Z,2.95
2017-12-08T04:00:00.512Z,3.08
2017-12-08T04:02:28.824Z,3.45
2017-12-08T04:04:56.438Z,2.95
2017-12-08T04:07:24.001Z,2.80
2017-12-08T04:09:52.326Z,3.05
2017-12-08T04:12:19.906Z,2.65
2017-12-08T04:14:47.453Z,3.10
2017-12-08T04:17:14.995Z,2.70
2017-12-08T04:19:42.619Z,2.90
2017-12-08T04:22:10.945Z,2.75
2017-12-08T04:24:38.494Z,2.67
2017-12-08T04:27:06.116Z,3.28
2017-12-08T04:29:34.455Z,1.98
2017-12-08T04:32:02.020Z,2.35
2017-12-08T04:34:29.621Z,2.67
2017-12-08T04:36:57.962Z,3.42
2017-12-08T04:39:25.536Z,2.30
2017-12-08T04:41:53.146Z,2.60
2017-12-08T04:44:20.698Z,2.15
2017-12-08T04:46:48.285Z,2.28
2017-12-08T04:49:15.895Z,2.72
2017-12-08T04:51:44.217Z,2.03
2017-12-08T04:54:11.783Z,1.67
2017-12-08T04:56:39.384Z,2.70
2017-12-08T04:59:06.927Z,1.90
2017-12-08T05:01:34.473Z,1.90
2017-12-08T05:04:02.093Z,2.20
2017-12-08T05:06:30.409Z,2.37
2017-12-08T05:08:57.989Z,1.83
2017-12-08T05:11:25.537Z,2.10
2017-12-08T05:13:53.122Z,2.30
2017-12-08T05:16:21.491Z,1.85
2017-12-08T05:18:49.046Z,1.92
2017-12-08T05:21:16.627Z,1.75
2017-12-08T05:23:45.030Z,2.10
2017-12-08T05:26:12.578Z,2.35
2017-12-08T05:28:40.919Z,2.00
2017-12-08T05:31:09.314Z,3.08
2017-12-08T05:33:36.939Z,3.10
2017-12-08T05:36:04.557Z,3.97
2017-12-08T05:38:32.931Z,2.70
2017-12-08T05:41:01.250Z,4.05
2017-12-08T05:43:28.823Z,3.90
2017-12-08T05:45:56.450Z,3.53
2017-12-08T05:48:24.026Z,3.65
2017-12-08T05:50:51.590Z,3.47
2017-12-08T05:53:19.186Z,3.60
2017-12-08T05:55:47.582Z,4.62
2017-12-08T05:58:15.127Z,2.87
2017-12-08T06:00:43.510Z,3.17
2017-12-08T06:03:11.882Z,2.90
2017-12-08T06:05:39.451Z,2.97
2017-12-08T06:08:07.806Z,2.95
2017-12-08T06:10:35.374Z,2.78
2017-12-08T06:13:02.938Z,2.62
2017-12-08T06:15:30.533Z,2.40
2017-12-08T06:17:58.101Z,2.00
2017-12-08T06:20:25.676Z,3.25
2017-12-08T06:22:53.255Z,3.67
2017-12-08T06:25:20.825Z,3.10
2017-12-08T06:27:48.385Z,3.10
2017-12-08T06:30:15.976Z,3.60
2017-12-08T06:32:44.316Z,3.10
2017-12-08T06:35:12.658Z,2.50
2017-12-08T06:37:40.251Z,2.87
2017-12-08T06:40:07.792Z,3.42
2017-12-08T06:42:35.378Z,3.12
2017-12-08T06:45:02.951Z,3.72
2017-12-08T06:47:30.522Z,3.95
2017-12-08T06:49:58.851Z,2.87
2017-12-08T06:52:26.468Z,2.95
2017-12-08T06:54:54.787Z,2.60
2017-12-08T06:57:22.346Z,3.05
2017-12-08T06:59:49.929Z,3.22
2017-12-08T07:02:17.503Z,3.00
2017-12-08T07:04:45.095Z,3.30
2017-12-08T07:07:12.706Z,2.50
2017-12-08T07:09:40.285Z,2.90
2017-12-08T07:12:07.917Z,3.20
2017-12-08T07:14:35.534Z,3.22
2017-12-08T07:17:03.858Z,2.72
2017-12-08T07:19:31.399Z,3.08
2017-12-08T07:21:59.026Z,3.90
2017-12-08T07:24:27.369Z,3.50
2017-12-08T07:26:54.943Z,3.47
2017-12-08T07:29:22.552Z,3.47
2017-12-08T07:31:50.127Z,2.87
2017-12-08T07:34:17.676Z,3.60
2017-12-08T07:36:45.298Z,3.15
2017-12-08T07:39:13.655Z,3.10
2017-12-08T07:41:41.206Z,3.72
2017-12-08T07:44:08.836Z,4.00
2017-12-08T07:46:36.428Z,3.50
2017-12-08T07:49:03.997Z,3.70
2017-12-08T07:51:31.610Z,3.42
2017-12-08T07:53:59.194Z,3.80
2017-12-08T07:56:26.780Z,3.75
2017-12-08T07:58:54.405Z,4.62
2017-12-08T08:01:21.995Z,3.78
2017-12-08T08:03:49.573Z,4.85
2017-12-08T08:06:17.941Z,5.05
2017-12-08T08:08:45.517Z,4.75
2017-12-08T08:11:13.848Z,5.90
2017-12-08T08:13:41.451Z,7.53
2017-12-08T08:16:09.825Z,8.10
2017-12-08T08:18:37.425Z,7.43
2017-12-08T08:21:05.037Z,6.95
2017-12-08T08:23:32.612Z,7.25
2017-12-08T08:26:00.958Z,8.60
2017-12-08T08:28:28.560Z,8.68
2017-12-08T08:30:56.908Z,9.13
2017-12-08T08:33:24.489Z,6.40
2017-12-08T08:35:52.843Z,4.90
2017-12-08T08:38:20.412Z,4.40
2017-12-08T08:40:47.985Z,4.78
2017-12-08T08:43:16.372Z,4.95
2017-12-08T08:45:44.690Z,5.03
2017-12-08T08:48:12.268Z,4.05
2017-12-08T08:50:39.842Z,4.60
2017-12-08T08:53:07.421Z,5.07
2017-12-08T08:55:35.740Z,3.90
2017-12-08T08:58:03.333Z,4.15
2017-12-08T09:00:30.930Z,3.70
2017-12-08T09:02:59.278Z,3.95
2017-12-08T09:05:26.918Z,3.80
2017-12-08T09:07:54.470Z,3.60
2017-12-08T09:10:22.061Z,3.70
2017-12-08T09:12:49.650Z,3.05
2017-12-08T09:15:17.967Z,3.08
2017-12-08T09:17:45.514Z,3.35
2017-12-08T09:20:13.109Z,3.10
2017-12-08T09:22:40.661Z,4.10
2017-12-08T09:25:08.259Z,3.15
2017-12-08T09:27:36.643Z,3.35
2017-12-08T09:30:05.015Z,4.03
2017-12-08T09:32:33.344Z,4.30
2017-12-08T09:35:00.935Z,4.37
2017-12-08T09:37:28.485Z,4.12
2017-12-08T09:39:56.050Z,5.05
2017-12-08T09:42:23.624Z,4.62
2017-12-08T09:44:51.172Z,3.90
2017-12-08T09:47:18.724Z,3.92
2017-12-08T09:49:46.322Z,3.37
2017-12-08T09:52:14.641Z,3.75
2017-12-08T09:54:42.188Z,4.00
2017-12-08T09:57:10.357Z,3.33
2017-12-08T09:59:37.913Z,2.92
2017-12-08T10:02:05.507Z,3.37
2017-12-08T10:04:33.106Z,4.05
2017-12-08T10:07:01.440Z,3.80
2017-12-08T10:09:29.025Z,3.90
2017-12-08T10:11:56.634Z,2.90
2017-12-08T10:14:24.205Z,3.55
2017-12-08T10:16:51.788Z,3.00
2017-12-08T10:19:19.416Z,3.40
2017-12-08T10:21:46.993Z,2.92
2017-12-08T10:24:14.578Z,3.20
2017-12-08T10:26:42.528Z,2.87
2017-12-08T10:29:10.098Z,3.30
2017-12-08T10:31:37.657Z,2.87
2017-12-08T10:34:05.242Z,3.60
2017-12-08T10:36:33.557Z,4.70
2017-12-08T10:39:01.146Z,3.47
2017-12-08T10:41:28.718Z,3.40
2017-12-08T10:43:56.266Z,3.58
2017-12-08T10:46:23.851Z,2.92
2017-12-08T10:48:51.428Z,3.00
2017-12-08T10:51:19.753Z,1.60
2017-12-08T10:53:47.337Z,1.50
2017-12-08T10:56:14.947Z,1.33
2017-12-08T10:58:42.499Z,1.08
2017-12-08T11:01:10.084Z,0.73
2017-12-08T11:03:37.689Z,1.10
2017-12-08T11:06:05.265Z,0.95
2017-12-08T11:08:32.889Z,0.98
2017-12-08T11:11:00.530Z,1.05
2017-12-08T11:13:28.099Z,1.20
2017-12-08T11:15:55.677Z,1.00
2017-12-08T11:18:23.288Z,1.10
2017-12-08T11:20:50.886Z,1.27
2017-12-08T11:23:18.453Z,1.50
2017-12-08T11:25:46.094Z,1.58
2017-12-08T11:28:13.645Z,1.60
2017-12-08T11:30:41.231Z,1.60
2017-12-08T11:33:08.855Z,1.52
2017-12-08T11:35:36.413Z,1.70
2017-12-08T11:38:03.981Z,2.37
2017-12-08T11:40:31.602Z,1.25
2017-12-08T11:42:59.930Z,1.70
2017-12-08T11:45:27.497Z,1.30
2017-12-08T11:47:55.114Z,1.58
2017-12-08T11:50:23.456Z,1.65
2017-12-08T11:52:51.010Z,1.87
2017-12-08T11:55:18.607Z,2.40
2017-12-08T11:57:46.929Z,2.10
2017-12-08T12:00:14.552Z,2.05
2017-12-08T12:02:42.953Z,2.12
2017-12-08T12:05:10.510Z,2.10
2017-12-08T12:07:38.074Z,1.67
2017-12-08T12:10:05.652Z,2.22
2017-12-08T12:12:33.226Z,1.95
2017-12-08T12:15:00.804Z,1.60
2017-12-08T12:17:28.407Z,2.03
2017-12-08T12:19:55.989Z,1.85
2017-12-08T12:22:23.532Z,3.15
2017-12-08T12:24:51.108Z,2.62
2017-12-08T12:27:18.677Z,3.20
2017-12-08T12:29:46.291Z,2.10
2017-12-08T12:32:13.855Z,2.10
2017-12-08T12:34:41.414Z,2.67
2017-12-08T12:37:08.991Z,2.60
2017-12-08T12:39:36.603Z,2.80
2017-12-08T12:42:04.145Z,2.50
2017-12-08T12:44:31.689Z,2.15
2017-12-08T12:46:59.285Z,2.37
2017-12-08T12:49:26.838Z,2.20
2017-12-08T12:51:54.426Z,2.25
2017-12-08T12:54:22.795Z,1.80
2017-12-08T12:56:51.123Z,2.17
2017-12-08T12:59:18.683Z,2.78
2017-12-08T13:01:46.265Z,2.35
2017-12-08T13:04:13.802Z,2.30
2017-12-08T13:06:41.367Z,2.62
2017-12-08T13:09:09.000Z,2.17
2017-12-08T13:11:36.583Z,1.90
2017-12-08T13:14:04.137Z,2.47
2017-12-08T13:16:31.714Z,2.05
2017-12-08T13:18:59.274Z,1.42
2017-12-08T13:21:26.826Z,1.73
2017-12-08T13:23:54.422Z,1.80
2017-12-08T13:26:21.978Z,1.60
2017-12-08T13:28:49.537Z,2.28
2017-12-08T13:31:17.119Z,2.08
2017-12-08T13:33:45.427Z,1.90
2017-12-08T13:36:12.977Z,1.20
2017-12-08T13:38:40.567Z,1.10
2017-12-08T13:41:08.138Z,0.95
2017-12-08T13:43:35.675Z,1.23
2017-12-08T13:46:03.243Z,1.15
2017-12-08T13:48:30.803Z,0.80
2017-12-08T13:50:58.385Z,1.20
2017-12-08T13:53:37.784Z,0.98
2017-12-08T13:56:17.301Z,0.98
2017-12-08T13:58:44.887Z,1.12
2017-12-08T14:01:12.438Z,0.85
2017-12-08T14:03:40.040Z,1.27
2017-12-08T14:06:07.668Z,0.90
2017-12-08T14:08:35.275Z,0.93
2017-12-08T14:11:03.639Z,1.08
2017-12-08T14:13:31.217Z,1.30
2017-12-08T14:15:59.558Z,0.88
2017-12-08T14:18:27.158Z,0.80
2017-12-08T14:20:55.518Z,0.80
2017-12-08T14:23:23.069Z,0.80
2017-12-08T14:25:50.644Z,1.00
2017-12-08T14:28:18.252Z,1.10
2017-12-08T14:30:45.894Z,0.80
2017-12-08T14:33:14.244Z,0.88
2017-12-08T14:35:41.888Z,0.77
2017-12-08T14:38:09.446Z,1.10
2017-12-08T14:40:37.775Z,0.70
2017-12-08T14:43:05.376Z,1.10
2017-12-08T14:45:32.917Z,0.80
2017-12-08T14:48:00.477Z,1.15
2017-12-08T14:50:28.053Z,0.70
2017-12-08T14:52:55.641Z,0.90
2017-12-08T14:55:23.183Z,1.52
2017-12-08T14:57:50.780Z,1.30
2017-12-08T15:00:19.100Z,1.85
2017-12-08T15:02:46.679Z,1.60
2017-12-08T15:05:14.289Z,1.20
2017-12-08T15:07:41.846Z,1.25
2017-12-08T15:10:09.436Z,1.45
2017-12-08T15:12:37.058Z,0.95
2017-12-08T15:15:05.423Z,1.00
2017-12-08T15:17:32.998Z,0.77
2017-12-08T15:20:01.361Z,1.23
2017-12-08T15:22:28.929Z,1.35
2017-12-08T15:24:57.646Z,1.27
2017-12-08T15:27:25.225Z,1.02
2017-12-08T15:29:52.792Z,0.98
2017-12-08T15:32:20.356Z,0.70
2017-12-08T15:34:47.973Z,1.40
2017-12-08T15:37:16.443Z,0.98
2017-12-08T15:39:44.771Z,1.08
2017-12-08T15:42:12.412Z,0.93
2017-12-08T15:44:40.007Z,1.10
2017-12-08T15:47:07.577Z,0.85
2017-12-08T15:49:35.188Z,0.80
2017-12-08T15:52:02.809Z,1.10
2017-12-08T15:54:31.170Z,0.75
2017-12-08T15:56:58.791Z,0.70
2017-12-08T15:59:26.361Z,0.50
2017-12-08T16:01:53.925Z,0.90
2017-12-08T16:04:21.525Z,0.77
2017-12-08T16:06:49.093Z,0.70
2017-12-08T16:09:17.451Z,0.62
2017-12-08T16:11:45.032Z,0.70
2017-12-08T16:14:13.388Z,0.80
2017-12-08T16:16:40.955Z,0.70
2017-12-08T16:19:08.571Z,0.68
2017-12-08T16:21:36.305Z,0.80
2017-12-08T16:24:03.894Z,0.60
2017-12-08T16:26:31.476Z,0.90
2017-12-08T16:28:59.058Z,0.90
2017-12-08T16:31:26.624Z,0.85
2017-12-08T16:33:54.243Z,0.82
2017-12-08T16:36:21.815Z,0.80
2017-12-08T16:38:49.436Z,0.77
2017-12-08T16:41:17.076Z,0.62
2017-12-08T16:43:45.409Z,0.60
2017-12-08T16:46:12.985Z,0.75
2017-12-08T16:48:40.582Z,0.98
2017-12-08T16:51:08.919Z,0.73
2017-12-08T16:53:36.506Z,0.70
2017-12-08T16:56:04.901Z,0.80
2017-12-08T16:58:32.440Z,0.80
2017-12-08T17:01:00.019Z,0.77
2017-12-08T17:03:28.397Z,0.68
2017-12-08T17:05:56.733Z,0.60
2017-12-08T17:08:24.294Z,1.33
2017-12-08T17:10:51.903Z,1.10
2017-12-08T17:13:19.456Z,0.88
2017-12-08T17:15:47.863Z,0.88
2017-12-08T17:18:15.443Z,1.20
2017-12-08T17:20:43.007Z,1.00
2017-12-08T17:23:10.588Z,1.00
2017-12-08T17:25:38.192Z,0.80
2017-12-08T17:28:05.771Z,0.93
2017-12-08T17:30:33.349Z,0.95
2017-12-08T17:33:00.969Z,1.00
2017-12-08T17:35:28.565Z,0.90
2017-12-08T17:37:56.133Z,1.60
2017-12-08T17:40:23.738Z,0.70
2017-12-08T17:42:52.044Z,0.85
2017-12-08T17:45:19.597Z,1.15
2017-12-08T17:47:47.176Z,0.77
2017-12-08T17:50:14.737Z,1.00
2017-12-08T17:52:42.305Z,0.70
2017-12-08T17:55:09.890Z,0.85
2017-12-08T17:57:37.453Z,0.80
2017-12-08T18:00:05.825Z,1.12
2017-12-08T18:02:33.408Z,0.60
2017-12-08T18:05:01.761Z,0.80
2017-12-08T18:07:29.368Z,0.70
2017-12-08T18:09:56.950Z,0.85
2017-12-08T18:12:24.538Z,0.70
2017-12-08T18:14:52.102Z,1.25
2017-12-08T18:17:19.729Z,1.35
2017-12-08T18:19:47.298Z,1.10
2017-12-08T18:22:14.845Z,0.80
2017-12-08T18:24:42.480Z,1.33
2017-12-08T18:27:10.622Z,0.75
2017-12-08T18:29:38.206Z,2.17
2017-12-08T18:32:06.556Z,1.60
2017-12-08T18:34:34.116Z,1.02
2017-12-08T18:37:01.704Z,0.90
2017-12-08T18:39:30.210Z,0.80
2017-12-08T18:41:57.817Z,0.82
2017-12-08T18:44:25.386Z,1.10
2017-12-08T18:46:52.998Z,1.05
2017-12-08T18:49:20.571Z,1.80
2017-12-08T18:51:48.122Z,1.70
2017-12-08T18:54:15.702Z,1.75
2017-12-08T18:56:43.271Z,2.33
2017-12-08T18:59:10.843Z,1.20
2017-12-08T19:01:38.428Z,1.27
2017-12-08T19:04:06.783Z,1.30
2017-12-08T19:06:34.356Z,1.20
2017-12-08T19:09:02.735Z,1.60
2017-12-08T19:11:30.322Z,0.90
2017-12-08T19:13:57.880Z,1.20
2017-12-08T19:16:25.558Z,1.10
2017-12-08T19:18:53.099Z,1.83
2017-12-08T19:21:20.719Z,1.00
2017-12-08T19:23:48.341Z,0.82
2017-12-08T19:26:15.897Z,0.90
2017-12-08T19:28:43.590Z,0.82
2017-12-08T19:31:11.216Z,1.40
2017-12-08T19:33:38.796Z,0.90
2017-12-08T19:36:06.366Z,0.93
2017-12-08T19:38:33.995Z,1.20
2017-12-08T19:41:01.561Z,1.02
2017-12-08T19:43:29.125Z,0.70
2017-12-08T19:45:56.748Z,1.10
2017-12-08T19:48:25.060Z,1.02
2017-12-08T19:50:52.617Z,0.98
2017-12-08T19:53:20.231Z,1.10
2017-12-08T19:55:48.604Z,0.80
2017-12-08T19:58:16.161Z,0.80
2017-12-08T20:00:43.770Z,1.00
2017-12-08T20:03:11.326Z,0.90
2017-12-08T20:05:38.873Z,0.75
2017-12-08T20:08:06.456Z,1.00
2017-12-08T20:10:34.022Z,0.95
2017-12-08T20:13:01.632Z,0.90
2017-12-08T20:15:29.976Z,0.90
2017-12-08T20:17:57.516Z,1.20
2017-12-08T20:20:25.087Z,1.23
2017-12-08T20:22:52.718Z,0.93
2017-12-08T20:25:20.274Z,0.90
2017-12-08T20:27:47.845Z,1.23
2017-12-08T20:30:15.452Z,1.02
2017-12-08T20:32:42.989Z,1.08
2017-12-08T20:35:10.555Z,1.40
2017-12-08T20:37:38.155Z,2.05
2017-12-08T20:40:06.521Z,1.60
2017-12-08T20:42:34.080Z,1.50
2017-12-08T20:45:01.681Z,1.58
2017-12-08T20:47:29.231Z,1.00
2017-12-08T20:49:56.768Z,0.70
2017-12-08T20:52:25.118Z,0.80
2017-12-08T20:54:52.670Z,0.98
2017-12-08T20:57:20.244Z,0.70
2017-12-08T20:59:47.847Z,0.90
2017-12-08T21:02:15.412Z,0.70
2017-12-08T21:04:42.983Z,0.75
2017-12-08T21:07:11.484Z,0.90
2017-12-08T21:09:39.051Z,0.70
2017-12-08T21:12:06.611Z,0.85
2017-12-08T21:14:34.214Z,0.65
2017-12-08T21:17:02.555Z,0.77
2017-12-08T21:19:30.493Z,0.88
2017-12-08T21:21:58.335Z,0.70
2017-12-08T21:24:25.925Z,0.60
2017-12-08T21:26:53.497Z,0.80
2017-12-08T21:29:21.076Z,0.93
2017-12-08T21:31:48.637Z,0.90
2017-12-08T21:34:16.214Z,0.98
2017-12-08T21:36:44.590Z,0.90
2017-12-08T21:39:12.925Z,1.52
2017-12-08T21:41:40.480Z,0.73
2017-12-08T21:44:08.078Z,1.25
2017-12-08T21:46:35.645Z,0.80
2017-12-08T21:49:03.978Z,1.20
2017-12-08T21:51:31.570Z,1.02
2017-12-08T21:53:59.155Z,1.15
2017-12-08T21:56:27.475Z,1.05
2017-12-08T21:58:55.057Z,0.90
2017-12-08T22:01:22.664Z,1.52
2017-12-08T22:03:50.247Z,1.10
2017-12-08T22:06:17.875Z,1.25
2017-12-08T22:08:46.215Z,1.00
2017-12-08T22:11:13.783Z,1.50
2017-12-08T22:13:41.408Z,1.10
2017-12-08T22:16:08.982Z,1.00
2017-12-08T22:18:36.590Z,1.30
2017-12-08T22:21:04.952Z,1.05
2017-12-08T22:23:32.496Z,1.20
2017-12-08T22:26:00.066Z,1.23
2017-12-08T22:28:27.640Z,1.45
2017-12-08T22:30:55.971Z,1.00
2017-12-08T22:33:23.562Z,1.65
2017-12-08T22:35:51.157Z,1.23
2017-12-08T22:38:18.735Z,1.37
2017-12-08T22:40:47.078Z,1.17
2017-12-08T22:43:15.464Z,1.15
2017-12-08T22:45:43.810Z,0.95
2017-12-08T22:48:11.386Z,1.45
2017-12-08T22:50:38.984Z,1.60
2017-12-08T22:53:06.573Z,1.48
2017-12-08T22:55:34.153Z,1.40
2017-12-08T22:58:01.806Z,1.10
2017-12-08T23:00:29.406Z,1.50
2017-12-08T23:02:57.746Z,1.15
2017-12-08T23:05:25.346Z,1.10
2017-12-08T23:07:54.612Z,1.62
2017-12-08T23:10:22.302Z,1.40
2017-12-08T23:12:50.698Z,0.90
2017-12-08T23:15:18.276Z,1.00
2017-12-08T23:17:45.912Z,1.05
2017-12-08T23:20:14.266Z,1.60
2017-12-08T23:22:42.116Z,1.30
2017-12-08T23:25:09.674Z,1.50
2017-12-08T23:27:37.284Z,0.95
2017-12-08T23:30:05.845Z,1.17
2017-12-08T23:32:33.453Z,1.15
2017-12-08T23:35:01.065Z,1.05
2017-12-08T23:37:29.379Z,1.85
2017-12-08T23:39:56.932Z,0.93
2017-12-08T23:42:24.548Z,0.80
2017-12-08T23:44:52.115Z,0.98
2017-12-08T23:47:19.677Z,1.10
2017-12-08T23:49:47.293Z,1.08
2017-12-08T23:52:14.864Z,0.88
2017-12-08T23:54:42.421Z,0.80
2017-12-08T23:57:11.236Z,1.15
2017-12-08T23:59:38.822Z,1.00
